createdAt,value
2022-10-07T00:00:26.769Z,101753.03
2022-10-07T00:02:53.390Z,101756.09
2022-10-07T00:05:20.009Z,101749.34
2022-10-07T00:07:46.980Z,101739.88
2022-10-07T00:10:13.820Z,101747.03
2022-10-07T00:12:41.792Z,101732.28
2022-10-07T00:15:09.473Z,101740.84
2022-10-07T00:17:36.077Z,101724.91
2022-10-07T00:20:02.988Z,101740.38
2022-10-07T00:22:29.730Z,101736.06
2022-10-07T00:24:56.304Z,101733.88
2022-10-07T00:27:22.912Z,101737.81
2022-10-07T00:29:50.958Z,101721.47
2022-10-07T00:32:17.644Z,101725.19
2022-10-07T00:34:44.278Z,101723.13
2022-10-07T00:37:10.980Z,101722.59
2022-10-07T00:39:37.806Z,101712.13
2022-10-07T00:42:04.628Z,101714.88
2022-10-07T00:44:42.861Z,101717.00
2022-10-07T00:47:25.720Z,101704.06
2022-10-07T00:49:56.271Z,101711.44
2022-10-07T00:52:26.024Z,101704.47
2022-10-07T00:54:55.712Z,101707.09
2022-10-07T00:57:25.791Z,101702.31
2022-10-07T00:59:53.692Z,101701.59
2022-10-07T01:02:22.745Z,101697.91
2022-10-07T01:04:51.467Z,101696.00
2022-10-07T01:07:18.809Z,101680.28
2022-10-07T01:09:45.700Z,101693.44
2022-10-07T01:12:18.651Z,101692.44
2022-10-07T01:14:54.310Z,101688.94
2022-10-07T01:17:28.902Z,101692.44
2022-10-07T01:20:11.744Z,101672.84
2022-10-07T01:22:46.676Z,101670.84
2022-10-07T01:25:27.293Z,101678.94
2022-10-07T01:28:00.762Z,101678.16
2022-10-07T01:30:31.825Z,101681.75
2022-10-07T01:33:03.726Z,101659.50
2022-10-07T01:35:33.699Z,101670.66
2022-10-07T01:38:04.983Z,101679.97
2022-10-07T01:40:35.715Z,101679.34
2022-10-07T01:43:04.644Z,101675.66
2022-10-07T01:45:34.287Z,101667.66
2022-10-07T01:48:01.176Z,101660.75
2022-10-07T01:50:30.348Z,101657.38
2022-10-07T01:53:15.000Z,101663.41
2022-10-07T01:55:49.586Z,101667.31
2022-10-07T01:58:32.108Z,101649.72
2022-10-07T02:01:08.662Z,101658.84
2022-10-07T02:03:58.376Z,101656.59
2022-10-07T02:06:36.186Z,101657.06
2022-10-07T02:09:11.497Z,101655.53
2022-10-07T02:11:42.550Z,101661.88
2022-10-07T02:14:14.523Z,101650.59
2022-10-07T02:16:44.317Z,101655.13
2022-10-07T02:19:15.928Z,101655.78
2022-10-07T02:21:46.096Z,101645.69
2022-10-07T02:24:14.650Z,101636.19
2022-10-07T02:26:43.633Z,101655.31
2022-10-07T02:29:13.662Z,101649.66
2022-10-07T02:31:41.947Z,101655.94
2022-10-07T02:34:17.501Z,101653.53
2022-10-07T02:36:50.828Z,101656.56
2022-10-07T02:39:17.728Z,101648.72
2022-10-07T02:41:50.162Z,101647.38
2022-10-07T02:44:22.917Z,101634.66
2022-10-07T02:46:53.997Z,101653.53
2022-10-07T02:49:23.336Z,101643.13
2022-10-07T02:51:55.604Z,101654.41
2022-10-07T02:54:28.833Z,101657.53
2022-10-07T02:56:56.728Z,101650.38
2022-10-07T02:59:26.593Z,101649.19
2022-10-07T03:01:58.731Z,101645.16
2022-10-07T03:04:25.620Z,101638.41
2022-10-07T03:06:52.561Z,101638.25
2022-10-07T03:09:19.300Z,101637.88
2022-10-07T03:11:46.001Z,101640.66
2022-10-07T03:14:12.708Z,101626.16
2022-10-07T03:16:40.712Z,101636.25
2022-10-07T03:19:07.300Z,101638.81
2022-10-07T03:21:33.984Z,101616.09
2022-10-07T03:24:00.633Z,101639.44
2022-10-07T03:26:27.200Z,101643.63
2022-10-07T03:28:53.894Z,101649.75
2022-10-07T03:31:20.948Z,101653.63
2022-10-07T03:33:49.017Z,101649.06
2022-10-07T03:36:15.714Z,101641.59
2022-10-07T03:38:42.316Z,101644.75
2022-10-07T03:41:08.895Z,101635.22
2022-10-07T03:43:35.601Z,101647.22
2022-10-07T03:46:02.519Z,101628.81
2022-10-07T03:48:29.784Z,101643.28
2022-10-07T03:50:58.403Z,101632.16
2022-10-07T03:53:26.572Z,101643.09
2022-10-07T03:55:53.226Z,101643.19
2022-10-07T03:58:19.857Z,101640.63
2022-10-07T04:00:46.878Z,101635.03
2022-10-07T04:03:14.286Z,101622.72
2022-10-07T04:05:40.947Z,101634.72
2022-10-07T04:08:11.621Z,101633.69
2022-10-07T04:10:38.182Z,101638.97
2022-10-07T04:13:04.847Z,101630.63
2022-10-07T04:15:31.533Z,101626.53
2022-10-07T04:17:58.097Z,101629.16
2022-10-07T04:20:25.327Z,101631.81
2022-10-07T04:22:52.161Z,101615.06
2022-10-07T04:25:20.169Z,101613.06
2022-10-07T04:27:52.076Z,101626.53
2022-10-07T04:30:18.870Z,101620.38
2022-10-07T04:32:45.584Z,101617.22
2022-10-07T04:35:12.178Z,101623.59
2022-10-07T04:37:38.875Z,101616.94
2022-10-07T04:40:06.116Z,101598.66
2022-10-07T04:42:34.158Z,101608.19
2022-10-07T04:45:00.853Z,101590.72
2022-10-07T04:47:27.474Z,101604.22
2022-10-07T04:49:54.084Z,101582.72
2022-10-07T04:52:20.916Z,101598.19
2022-10-07T04:54:47.610Z,101610.34
2022-10-07T04:57:14.192Z,101604.97
2022-10-07T04:59:43.167Z,101598.56
2022-10-07T05:02:10.218Z,101590.41
2022-10-07T05:04:36.894Z,101603.34
2022-10-07T05:07:03.757Z,101602.69
2022-10-07T05:09:30.393Z,101598.13
2022-10-07T05:11:57.114Z,101605.84
2022-10-07T05:14:23.722Z,101596.88
2022-10-07T05:16:52.199Z,101596.22
2022-10-07T05:19:19.405Z,101598.47
2022-10-07T05:21:46.080Z,101605.03
2022-10-07T05:24:12.697Z,101612.66
2022-10-07T05:26:39.432Z,101609.59
2022-10-07T05:29:06.041Z,101621.09
2022-10-07T05:31:32.836Z,101619.03
2022-10-07T05:34:01.014Z,101630.06
2022-10-07T05:36:27.678Z,101628.72
2022-10-07T05:38:54.307Z,101623.63
2022-10-07T05:41:20.919Z,101622.38
2022-10-07T05:43:47.616Z,101615.09
2022-10-07T05:46:15.795Z,101622.94
2022-10-07T05:48:45.878Z,101619.19
2022-10-07T05:51:14.642Z,101613.69
2022-10-07T05:53:41.452Z,101621.22
2022-10-07T05:56:09.951Z,101629.97
2022-10-07T05:58:36.742Z,101602.97
2022-10-07T06:01:08.732Z,101623.53
2022-10-07T06:03:38.151Z,101629.31
2022-10-07T06:06:05.036Z,101629.31
2022-10-07T06:08:32.968Z,101627.53
2022-10-07T06:11:01.784Z,101628.88
2022-10-07T06:13:28.506Z,101630.34
2022-10-07T06:16:00.438Z,101631.22
2022-10-07T06:18:27.122Z,101628.34
2022-10-07T06:20:54.627Z,101631.53
2022-10-07T06:23:21.397Z,101628.94
2022-10-07T06:25:57.731Z,101629.84
2022-10-07T06:28:24.690Z,101627.69
2022-10-07T06:30:51.987Z,101624.22
2022-10-07T06:33:19.770Z,101628.88
2022-10-07T06:35:46.647Z,101630.44
2022-10-07T06:38:13.202Z,101631.19
2022-10-07T06:40:39.876Z,101627.59
2022-10-07T06:43:07.894Z,101618.94
2022-10-07T06:45:34.789Z,101627.44
2022-10-07T06:48:01.715Z,101641.84
2022-10-07T06:50:28.710Z,101638.09
2022-10-07T06:52:55.491Z,101643.88
2022-10-07T06:55:22.168Z,101647.50
2022-10-07T06:57:48.820Z,101649.53
2022-10-07T07:00:17.071Z,101652.69
2022-10-07T07:02:44.039Z,101654.97
2022-10-07T07:05:14.312Z,101644.84
2022-10-07T07:07:40.998Z,101624.69
2022-10-07T07:10:08.845Z,101639.91
2022-10-07T07:12:35.479Z,101621.09
2022-10-07T07:15:02.079Z,101642.19
2022-10-07T07:17:30.099Z,101623.00
2022-10-07T07:19:56.733Z,101637.69
2022-10-07T07:22:23.954Z,101641.13
2022-10-07T07:24:50.624Z,101651.94
2022-10-07T07:27:17.166Z,101651.25
2022-10-07T07:29:46.090Z,101648.28
2022-10-07T07:35:21.973Z,101645.06
2022-10-07T07:37:58.838Z,101598.97
2022-10-07T07:40:30.455Z,101612.50
2022-10-07T07:42:57.491Z,101612.03
2022-10-07T07:45:40.426Z,101583.31
2022-10-07T07:48:07.345Z,101632.31
2022-10-07T07:50:38.101Z,101567.63
2022-10-07T07:53:12.836Z,101625.66
2022-10-07T07:55:42.539Z,101620.28
2022-10-07T07:58:22.812Z,101587.06
2022-10-07T08:01:06.598Z,101550.88
2022-10-07T08:03:44.458Z,101555.88
2022-10-07T08:06:17.611Z,101595.59
2022-10-07T08:08:53.894Z,101567.66
2022-10-07T08:11:21.157Z,101605.75
2022-10-07T08:13:48.032Z,101582.06
2022-10-07T08:16:17.115Z,101590.97
2022-10-07T08:18:45.759Z,101593.03
2022-10-07T08:21:15.803Z,101569.53
2022-10-07T08:23:42.530Z,101585.56
2022-10-07T08:26:10.103Z,101568.63
2022-10-07T08:28:42.244Z,101560.63
2022-10-07T08:31:37.443Z,101534.78
2022-10-07T08:34:05.203Z,101544.53
2022-10-07T08:36:40.945Z,101520.81
2022-10-07T08:39:07.943Z,101546.56
2022-10-07T08:42:08.922Z,101521.28
2022-10-07T08:44:39.894Z,101540.13
2022-10-07T08:47:17.731Z,101540.94
2022-10-07T08:49:54.712Z,101544.03
2022-10-07T08:52:30.654Z,101539.75
2022-10-07T08:54:58.604Z,101514.31
2022-10-07T08:57:38.576Z,101516.00
2022-10-07T09:00:06.205Z,101520.66
2022-10-07T09:02:43.566Z,101512.94
2022-10-07T09:05:20.029Z,101497.78
2022-10-07T09:07:52.363Z,101509.41
2022-10-07T09:10:30.787Z,101500.00
2022-10-07T09:13:00.793Z,101490.47
2022-10-07T09:15:36.866Z,101489.38
2022-10-07T09:18:10.606Z,101482.00
2022-10-07T09:20:50.148Z,101472.34
2022-10-07T09:23:24.536Z,101473.97
2022-10-07T09:25:57.619Z,101475.44
2022-10-07T09:28:28.104Z,101468.44
2022-10-07T09:30:55.125Z,101460.69
2022-10-07T09:33:26.939Z,101444.78
2022-10-07T09:35:57.607Z,101468.88
2022-10-07T09:38:34.726Z,101461.63
2022-10-07T09:41:12.197Z,101454.72
2022-10-07T09:43:42.965Z,101454.34
2022-10-07T09:46:30.150Z,101440.53
2022-10-07T09:48:59.317Z,101432.09
2022-10-07T09:51:27.170Z,101424.22
2022-10-07T09:53:59.550Z,101422.44
2022-10-07T09:56:40.880Z,101441.81
2022-10-07T09:59:23.453Z,101413.97
2022-10-07T10:01:52.890Z,101424.22
2022-10-07T10:04:23.700Z,101423.97
2022-10-07T10:07:01.257Z,101419.91
2022-10-07T10:09:34.845Z,101435.72
2022-10-07T10:12:16.028Z,101386.16
2022-10-07T10:14:56.868Z,101415.56
2022-10-07T10:17:44.656Z,101397.97
2022-10-07T10:20:33.155Z,101387.03
2022-10-07T10:23:02.816Z,101414.91
2022-10-07T10:25:53.447Z,101387.19
2022-10-07T10:28:35.965Z,101378.34
2022-10-07T10:31:16.185Z,101345.13
2022-10-07T10:33:50.303Z,101367.56
2022-10-07T10:36:25.466Z,101325.00
2022-10-07T10:39:03.551Z,101381.94
2022-10-07T10:41:40.124Z,101386.56
2022-10-07T10:44:33.000Z,101367.56
2022-10-07T10:47:08.037Z,101358.69
2022-10-07T10:49:44.838Z,101321.41
2022-10-07T10:52:44.710Z,101308.13
2022-10-07T10:55:32.400Z,101315.94
2022-10-07T10:58:27.929Z,101315.00
2022-10-07T11:01:09.778Z,101350.34
2022-10-07T11:03:53.878Z,101312.13
2022-10-07T11:06:36.805Z,101316.50
2022-10-07T11:09:51.201Z,101293.25
2022-10-07T11:12:33.516Z,101318.53
2022-10-07T11:15:28.637Z,101286.53
2022-10-07T11:21:26.243Z,101305.50
2022-10-07T11:24:11.789Z,101265.19
2022-10-07T11:27:24.620Z,101293.66
2022-10-07T11:30:04.084Z,101244.31
2022-10-07T11:32:48.186Z,101272.91
2022-10-07T11:35:38.820Z,101283.38
2022-10-07T11:38:34.622Z,101251.16
2022-10-07T11:41:08.823Z,101248.06
2022-10-07T11:43:55.616Z,101222.66
2022-10-07T11:47:04.684Z,101219.19
2022-10-07T11:49:56.224Z,101268.59
2022-10-07T11:52:40.590Z,101199.63
2022-10-07T11:55:23.025Z,101240.63
2022-10-07T11:57:57.789Z,101200.84
2022-10-07T12:00:36.088Z,101220.59
2022-10-07T12:03:18.940Z,101209.59
2022-10-07T12:06:16.051Z,101215.75
2022-10-07T12:08:49.843Z,101215.44
2022-10-07T12:11:46.712Z,101193.66
2022-10-07T12:14:42.144Z,101212.22
2022-10-07T12:17:27.618Z,101180.09
2022-10-07T12:20:32.069Z,101209.16
2022-10-07T12:23:38.597Z,101194.97
2022-10-07T12:26:27.372Z,101194.38
2022-10-07T12:29:01.428Z,101183.84
2022-10-07T12:32:04.862Z,101169.88
2022-10-07T12:34:38.873Z,101144.00
2022-10-07T12:37:53.163Z,101131.66
2022-10-07T12:40:37.228Z,101138.38
2022-10-07T12:43:21.744Z,101171.22
2022-10-07T12:45:53.477Z,101114.09
2022-10-07T12:50:57.453Z,101137.88
2022-10-07T12:53:32.905Z,101116.88
2022-10-07T12:56:03.233Z,101146.66
2022-10-07T12:59:01.962Z,101135.75
2022-10-07T13:01:46.304Z,101148.13
2022-10-07T13:05:08.326Z,101141.06
2022-10-07T13:08:24.292Z,101133.06
2022-10-07T13:11:20.057Z,101139.72
2022-10-07T13:13:53.359Z,101107.72
2022-10-07T13:16:35.509Z,101125.63
2022-10-07T13:19:23.539Z,101102.16
2022-10-07T13:22:00.926Z,101088.03
2022-10-07T13:24:29.001Z,101101.94
2022-10-07T13:26:57.632Z,101096.50
2022-10-07T13:29:42.068Z,101106.66
2022-10-07T13:32:22.168Z,101090.72
2022-10-07T13:34:49.764Z,101089.56
2022-10-07T13:37:27.694Z,101101.44
2022-10-07T13:45:27.859Z,101072.59
2022-10-07T13:47:55.479Z,101085.81
2022-10-07T13:50:26.778Z,101052.59
2022-10-07T13:52:54.814Z,101073.91
2022-10-07T13:55:28.317Z,101093.94
2022-10-07T13:57:58.765Z,101082.19
2022-10-07T14:00:27.256Z,101074.81
2022-10-07T14:02:54.346Z,101091.63
2022-10-07T14:05:23.154Z,101083.50
2022-10-07T14:07:53.202Z,101041.41
2022-10-07T14:10:21.017Z,101077.97
2022-10-07T14:12:51.169Z,101062.75
2022-10-07T14:15:22.802Z,101073.63
2022-10-07T14:17:51.213Z,101061.00
2022-10-07T14:22:49.746Z,101061.66
2022-10-07T14:25:18.816Z,101055.22
2022-10-07T14:28:14.953Z,101062.31
2022-10-07T14:30:45.197Z,101037.06
2022-10-07T14:33:14.645Z,101060.44
2022-10-07T14:35:41.607Z,101015.31
2022-10-07T14:38:26.644Z,101039.13
2022-10-07T14:40:53.302Z,101054.75
2022-10-07T14:43:20.637Z,101046.22
2022-10-07T14:45:48.769Z,101021.97
2022-10-07T14:48:15.484Z,101024.59
2022-10-07T14:50:42.103Z,101043.47
2022-10-07T14:53:15.911Z,101040.13
2022-10-07T14:55:43.073Z,101018.50
2022-10-07T14:58:10.333Z,101032.13
2022-10-07T15:00:39.686Z,101046.97
2022-10-07T15:03:07.988Z,101021.84
2022-10-07T15:05:34.651Z,101027.75
2022-10-07T15:08:01.664Z,101006.56
2022-10-07T15:10:28.443Z,101026.97
2022-10-07T15:12:55.709Z,101035.28
2022-10-07T15:15:22.433Z,101025.50
2022-10-07T15:17:49.138Z,101011.56
2022-10-07T15:20:17.461Z,101020.38
2022-10-07T15:22:44.926Z,101034.63
2022-10-07T15:25:15.322Z,101029.38
2022-10-07T15:27:42.445Z,101019.31
2022-10-07T15:30:10.564Z,101011.66
2022-10-07T15:32:37.332Z,101019.84
2022-10-07T15:35:06.318Z,101042.34
2022-10-07T15:37:35.838Z,101032.00
2022-10-07T15:40:02.928Z,101023.69
2022-10-07T15:42:29.675Z,101036.91
2022-10-07T15:44:56.651Z,101047.69
2022-10-07T15:47:23.843Z,101016.69
2022-10-07T15:49:54.866Z,101016.41
2022-10-07T15:52:21.901Z,101039.13
2022-10-07T15:54:52.126Z,101031.16
2022-10-07T15:57:18.946Z,101020.72
2022-10-07T15:59:45.775Z,101013.09
2022-10-07T16:02:17.834Z,101042.53
2022-10-07T16:04:47.863Z,101005.50
2022-10-07T16:07:15.078Z,101048.50
2022-10-07T16:09:42.113Z,101051.03
2022-10-07T16:12:10.539Z,101017.59
2022-10-07T16:14:37.243Z,101033.34
2022-10-07T16:17:03.995Z,101044.22
2022-10-07T16:19:30.863Z,101042.97
2022-10-07T16:21:57.927Z,101043.25
2022-10-07T16:24:24.773Z,101004.50
2022-10-07T16:26:51.641Z,101054.00
2022-10-07T16:29:21.838Z,100994.44
2022-10-07T16:31:48.965Z,100999.91
2022-10-07T16:34:17.917Z,101046.38
2022-10-07T16:36:46.801Z,101047.00
2022-10-07T16:39:14.686Z,101054.88
2022-10-07T16:41:41.968Z,101009.75
2022-10-07T16:44:08.923Z,101038.81
2022-10-07T16:46:37.878Z,101045.25
2022-10-07T16:49:05.606Z,101033.56
2022-10-07T16:51:34.175Z,101056.69
2022-10-07T16:54:02.463Z,101056.09
2022-10-07T16:56:30.667Z,101056.59
2022-10-07T16:58:58.793Z,101063.63
2022-10-07T17:01:26.630Z,101074.94
2022-10-07T17:03:56.509Z,101079.47
2022-10-07T17:06:24.388Z,101073.63
2022-10-07T17:08:51.457Z,101068.25
2022-10-07T17:11:20.701Z,101062.50
2022-10-07T17:13:47.288Z,101074.06
2022-10-07T17:16:14.114Z,101069.75
2022-10-07T17:18:40.809Z,101060.97
2022-10-07T17:21:08.873Z,101066.13
2022-10-07T17:23:35.650Z,101086.06
2022-10-07T17:26:05.130Z,101092.75
2022-10-07T17:28:31.805Z,101071.19
2022-10-07T17:31:03.905Z,101084.69
2022-10-07T17:33:30.637Z,101087.69
2022-10-07T17:36:01.302Z,101092.09
2022-10-07T17:38:29.247Z,101086.91
2022-10-07T17:40:55.997Z,101074.72
2022-10-07T17:43:22.597Z,101087.25
2022-10-07T17:45:49.212Z,101071.72
2022-10-07T17:48:15.849Z,101083.09
2022-10-07T17:50:42.496Z,101090.88
2022-10-07T17:53:09.076Z,101094.34
2022-10-07T17:55:37.070Z,101104.22
2022-10-07T17:58:03.718Z,101105.84
2022-10-07T18:00:30.371Z,101110.91
2022-10-07T18:02:57.019Z,101100.59
2022-10-07T18:05:24.009Z,101097.06
2022-10-07T18:07:50.715Z,101099.72
2022-10-07T18:10:17.336Z,101101.81
2022-10-07T18:12:45.307Z,101106.53
2022-10-07T18:15:11.969Z,101109.84
2022-10-07T18:17:38.668Z,101114.97
2022-10-07T18:20:08.553Z,101107.72
2022-10-07T18:22:37.982Z,101105.56
2022-10-07T18:25:05.651Z,101115.16
2022-10-07T18:27:32.221Z,101109.47
2022-10-07T18:30:00.194Z,101122.88
2022-10-07T18:32:27.098Z,101102.94
2022-10-07T18:34:54.129Z,101094.94
2022-10-07T18:37:20.806Z,101097.13
2022-10-07T18:39:47.778Z,101086.47
2022-10-07T18:42:14.404Z,101096.28
2022-10-07T18:44:41.235Z,101084.03
2022-10-07T18:47:09.746Z,101090.38
2022-10-07T18:49:36.823Z,101093.56
2022-10-07T18:52:03.518Z,101087.50
2022-10-07T18:54:30.164Z,101092.03
2022-10-07T18:56:57.206Z,101083.34
2022-10-07T18:59:24.460Z,101067.13
2022-10-07T19:01:51.494Z,101073.53
2022-10-07T19:04:20.392Z,101084.81
2022-10-07T19:06:47.831Z,101084.25
2022-10-07T19:09:16.644Z,101084.69
2022-10-07T19:11:43.652Z,101086.00
2022-10-07T19:14:10.917Z,101087.94
2022-10-07T19:16:39.501Z,101081.97
2022-10-07T19:19:08.067Z,101087.84
2022-10-07T19:21:36.135Z,101068.94
2022-10-07T19:24:04.003Z,101089.94
2022-10-07T19:26:32.689Z,101082.91
2022-10-07T19:29:02.163Z,101080.69
2022-10-07T19:31:30.026Z,101089.03
2022-10-07T19:33:58.990Z,101070.38
2022-10-07T19:36:25.628Z,101075.59
2022-10-07T19:38:53.698Z,101083.09
2022-10-07T19:41:24.140Z,101080.50
2022-10-07T19:43:51.927Z,101076.78
2022-10-07T19:46:23.014Z,101010.75
2022-10-07T19:48:49.893Z,101072.56
2022-10-07T19:51:18.690Z,101033.44
2022-10-07T19:53:47.391Z,101068.94
2022-10-07T19:56:17.173Z,101090.53
2022-10-07T19:58:44.713Z,101082.97
2022-10-07T20:01:11.442Z,101088.31
2022-10-07T20:03:38.158Z,101076.81
2022-10-07T20:06:05.401Z,101060.75
2022-10-07T20:08:32.600Z,101059.56
2022-10-07T20:10:59.839Z,101077.22
2022-10-07T20:13:28.463Z,101067.19
2022-10-07T20:16:02.452Z,101080.31
2022-10-07T20:18:29.161Z,101056.38
2022-10-07T20:20:59.026Z,101080.41
2022-10-07T20:23:25.707Z,101068.16
2022-10-07T20:25:52.260Z,101079.84
2022-10-07T20:28:18.973Z,101065.16
2022-10-07T20:31:01.981Z,101068.50
2022-10-07T20:33:29.738Z,101059.81
2022-10-07T20:35:56.366Z,101062.72
2022-10-07T20:38:23.038Z,101062.41
2022-10-07T20:40:52.099Z,101066.59
2022-10-07T20:43:18.825Z,101068.13
2022-10-07T20:45:46.923Z,101047.97
2022-10-07T20:48:13.762Z,101059.22
2022-10-07T20:50:40.398Z,101061.69
2022-10-07T20:53:08.059Z,101047.97
2022-10-07T20:55:36.438Z,101058.47
2022-10-07T20:58:03.109Z,101059.38
2022-10-07T21:00:29.783Z,101059.53
2022-10-07T21:02:59.510Z,101059.13
2022-10-07T21:05:26.171Z,101061.56
2022-10-07T21:07:54.868Z,101059.75
2022-10-07T21:10:22.116Z,101058.03
2022-10-07T21:12:49.223Z,101059.06
2022-10-07T21:15:16.279Z,101057.03
2022-10-07T21:17:51.732Z,101056.75
2022-10-07T21:20:19.752Z,101047.09
2022-10-07T21:22:46.472Z,101037.38
2022-10-07T21:25:14.439Z,101044.28
2022-10-07T21:27:41.131Z,101044.91
2022-10-07T21:30:08.906Z,101042.47
2022-10-07T21:32:35.579Z,101049.72
2022-10-07T21:35:02.177Z,101051.28
2022-10-07T21:37:30.171Z,101045.16
2022-10-07T21:39:56.839Z,101046.78
2022-10-07T21:42:23.577Z,101035.88
2022-10-07T21:44:50.160Z,101048.72
2022-10-07T21:47:16.881Z,101043.75
2022-10-07T21:49:43.586Z,101040.94
2022-10-07T21:52:10.194Z,101029.50
2022-10-07T21:54:38.145Z,101031.59
2022-10-07T21:57:04.772Z,101030.16
2022-10-07T21:59:31.482Z,101025.91
2022-10-07T22:01:58.126Z,101009.16
2022-10-07T22:04:24.820Z,101032.34
2022-10-07T22:06:51.499Z,101027.63
2022-10-07T22:09:18.742Z,101014.91
2022-10-07T22:11:47.427Z,101020.75
2022-10-07T22:14:14.160Z,100998.59
2022-10-07T22:16:41.220Z,101009.16
2022-10-07T22:19:11.201Z,101003.44
2022-10-07T22:21:37.898Z,100993.53
2022-10-07T22:24:04.992Z,101009.69
2022-10-07T22:26:33.414Z,101029.41
2022-10-07T22:29:01.729Z,101022.31
2022-10-07T22:31:28.431Z,101004.41
2022-10-07T22:33:57.717Z,100997.78
2022-10-07T22:36:25.695Z,100991.19
2022-10-07T22:38:53.127Z,101002.72
2022-10-07T22:41:19.813Z,101000.22
2022-10-07T22:43:47.655Z,101010.25
2022-10-07T22:46:17.938Z,100992.16
2022-10-07T22:48:44.786Z,100994.69
2022-10-07T22:51:13.235Z,100997.22
2022-10-07T22:53:41.484Z,100991.56
2022-10-07T22:56:10.236Z,100992.75
2022-10-07T22:58:37.672Z,101005.28
2022-10-07T23:01:05.216Z,101001.88
2022-10-07T23:03:33.531Z,100994.78
2022-10-07T23:06:00.279Z,101007.13
2022-10-07T23:08:27.556Z,101003.38
2022-10-07T23:10:57.698Z,101001.31
2022-10-07T23:13:24.818Z,100986.34
2022-10-07T23:15:55.316Z,100993.09
2022-10-07T23:18:22.080Z,100985.69
2022-10-07T23:20:57.709Z,100987.78
2022-10-07T23:23:24.595Z,100987.34
2022-10-07T23:25:51.172Z,100978.13
2022-10-07T23:28:18.003Z,100973.91
2022-10-07T23:30:44.877Z,100974.78
2022-10-07T23:33:11.696Z,100970.25
2022-10-07T23:35:38.341Z,100974.38
2022-10-07T23:38:06.561Z,100967.78
2022-10-07T23:40:33.313Z,100981.72
2022-10-07T23:42:59.919Z,100958.97
2022-10-07T23:45:26.871Z,100980.63
2022-10-07T23:47:53.706Z,100979.81
2022-10-07T23:50:20.385Z,100974.41
2022-10-07T23:52:47.358Z,100976.25
2022-10-07T23:55:16.009Z,100916.94
2022-10-07T23:57:42.637Z,100967.41
